sensor_id;sensor_type;location;lat;lon;timestamp;pressure;altitude;pressure_sealevel;temperature;humidity
40650;BME280;26342;42.826;23.992;2022-12-31T00:01:10;96341.97;;;2.94;100.00
40650;BME280;26342;42.826;23.992;2022-12-31T00:03:37;96345.78;;;2.91;100.00
40650;BME280;26342;42.826;23.992;2022-12-31T00:06:13;96345.97;;;2.90;100.00
40650;BME280;26342;42.826;23.992;2022-12-31T00:08:39;96349.97;;;3.00;100.00
40650;BME280;26342;42.826;23.992;2022-12-31T00:11:04;96343.53;;;2.88;100.00
40650;BME280;26342;42.826;23.992;2022-12-31T00:13:30;96353.25;;;2.88;100.00
40650;BME280;26342;42.826;23.992;2022-12-31T00:16:05;96352.53;;;2.79;100.00
40650;BME280;26342;42.826;23.992;2022-12-31T00:18:30;96350.16;;;2.84;100.00
40650;BME280;26342;42.826;23.992;2022-12-31T00:20:56;96357.09;;;2.85;100.00
40650;BME280;26342;42.826;23.992;2022-12-31T00:23:21;96360.25;;;2.80;100.00
40650;BME280;26342;42.826;23.992;2022-12-31T00:25:46;96359.53;;;2.72;100.00
40650;BME280;26342;42.826;23.992;2022-12-31T00:28:12;96361.91;;;2.67;100.00
40650;BME280;26342;42.826;23.992;2022-12-31T00:30:37;96364.63;;;2.73;100.00
40650;BME280;26342;42.826;23.992;2022-12-31T00:33:03;96366.34;;;2.81;100.00
40650;BME280;26342;42.826;23.992;2022-12-31T00:35:28;96365.34;;;2.82;100.00
40650;BME280;26342;42.826;23.992;2022-12-31T00:37:53;96361.25;;;2.79;100.00
40650;BME280;26342;42.826;23.992;2022-12-31T00:40:19;96361.25;;;2.79;100.00
40650;BME280;26342;42.826;23.992;2022-12-31T00:42:44;96366.97;;;2.83;100.00
40650;BME280;26342;42.826;23.992;2022-12-31T00:45:10;96360.25;;;2.80;100.00
40650;BME280;26342;42.826;23.992;2022-12-31T00:47:35;96361.91;;;2.82;100.00
40650;BME280;26342;42.826;23.992;2022-12-31T00:50:00;96362.53;;;2.84;100.00
40650;BME280;26342;42.826;23.992;2022-12-31T00:52:26;96367.25;;;2.88;100.00
40650;BME280;26342;42.826;23.992;2022-12-31T00:54:51;96365.44;;;2.89;100.00
40650;BME280;26342;42.826;23.992;2022-12-31T00:57:17;96354.88;;;2.89;100.00
40650;BME280;26342;42.826;23.992;2022-12-31T00:59:42;96357.78;;;2.94;100.00
40650;BME280;26342;42.826;23.992;2022-12-31T01:02:07;96353.25;;;2.88;100.00
40650;BME280;26342;42.826;23.992;2022-12-31T01:04:33;96359.97;;;2.90;100.00
40650;BME280;26342;42.826;23.992;2022-12-31T01:06:58;96357.72;;;2.87;100.00
40650;BME280;26342;42.826;23.992;2022-12-31T01:09:24;96361.91;;;2.82;100.00
40650;BME280;26342;42.826;23.992;2022-12-31T01:11:50;96368.97;;;2.81;100.00
40650;BME280;26342;42.826;23.992;2022-12-31T01:14:17;96369.44;;;2.85;100.00
40650;BME280;26342;42.826;23.992;2022-12-31T01:16:44;96373.72;;;2.86;100.00
40650;BME280;26342;42.826;23.992;2022-12-31T01:19:13;96364.81;;;2.72;100.00
40650;BME280;26342;42.826;23.992;2022-12-31T01:21:40;96381.63;;;2.86;100.00
40650;BME280;26342;42.826;23.992;2022-12-31T01:24:06;96378.63;;;2.89;100.00
40650;BME280;26342;42.826;23.992;2022-12-31T01:26:33;96376.25;;;2.94;100.00
40650;BME280;26342;42.826;23.992;2022-12-31T01:28:58;96368.16;;;2.95;100.00
40650;BME280;26342;42.826;23.992;2022-12-31T01:31:24;96384.16;;;2.94;100.00
40650;BME280;26342;42.826;23.992;2022-12-31T01:33:50;96385.22;;;2.99;100.00
40650;BME280;26342;42.826;23.992;2022-12-31T01:36:19;96378.31;;;2.98;100.00
40650;BME280;26342;42.826;23.992;2022-12-31T01:38:45;96378.50;;;2.97;100.00
40650;BME280;26342;42.826;23.992;2022-12-31T01:41:15;96366.53;;;2.94;100.00
40650;BME280;26342;42.826;23.992;2022-12-31T01:46:06;96376.50;;;2.99;100.00
40650;BME280;26342;42.826;23.992;2022-12-31T01:48:32;96375.03;;;3.11;100.00
40650;BME280;26342;42.826;23.992;2022-12-31T01:50:58;96377.16;;;3.01;100.00
40650;BME280;26342;42.826;23.992;2022-12-31T01:53:23;96380.31;;;2.96;100.00
40650;BME280;26342;42.826;23.992;2022-12-31T01:55:53;96381.97;;;2.97;100.00
40650;BME280;26342;42.826;23.992;2022-12-31T01:58:27;96385.88;;;3.01;100.00
40650;BME280;26342;42.826;23.992;2022-12-31T02:00:53;96377.59;;;3.04;100.00
40650;BME280;26342;42.826;23.992;2022-12-31T02:03:23;96372.75;;;3.08;100.00
40650;BME280;26342;42.826;23.992;2022-12-31T02:06:13;96372.75;;;3.08;100.00
40650;BME280;26342;42.826;23.992;2022-12-31T02:08:41;96372.94;;;3.06;100.00
40650;BME280;26342;42.826;23.992;2022-12-31T02:13:55;96377.41;;;3.06;100.00
40650;BME280;26342;42.826;23.992;2022-12-31T02:27:44;96393.31;;;3.13;100.00
40650;BME280;26342;42.826;23.992;2022-12-31T02:30:17;96388.84;;;3.13;100.00
40650;BME280;26342;42.826;23.992;2022-12-31T02:32:52;96395.41;;;3.17;100.00
40650;BME280;26342;42.826;23.992;2022-12-31T02:35:28;96390.38;;;3.22;100.00
40650;BME280;26342;42.826;23.992;2022-12-31T02:38:02;96389.19;;;3.25;100.00
40650;BME280;26342;42.826;23.992;2022-12-31T02:40:33;96394.81;;;3.22;100.00
40650;BME280;26342;42.826;23.992;2022-12-31T02:42:59;96405.94;;;3.17;100.00
40650;BME280;26342;42.826;23.992;2022-12-31T02:45:36;96406.38;;;3.21;100.00
40650;BME280;26342;42.826;23.992;2022-12-31T02:56:46;96421.88;;;3.45;100.00
40650;BME280;26342;42.826;23.992;2022-12-31T03:00:12;96416.78;;;3.44;100.00
40650;BME280;26342;42.826;23.992;2022-12-31T03:02:32;96415.78;;;3.45;100.00
40650;BME280;26342;42.826;23.992;2022-12-31T03:05:00;96415.84;;;3.51;100.00
40650;BME280;26342;42.826;23.992;2022-12-31T03:07:31;96406.50;;;3.49;100.00
40650;BME280;26342;42.826;23.992;2022-12-31T03:09:57;96391.13;;;3.38;100.00
40650;BME280;26342;42.826;23.992;2022-12-31T03:12:29;96401.97;;;3.43;100.00
40650;BME280;26342;42.826;23.992;2022-12-31T03:15:30;96404.59;;;3.43;100.00
40650;BME280;26342;42.826;23.992;2022-12-31T03:18:10;96397.69;;;3.42;100.00
40650;BME280;26342;42.826;23.992;2022-12-31T03:23:26;96391.28;;;3.51;100.00
40650;BME280;26342;42.826;23.992;2022-12-31T03:25:52;96388.72;;;3.57;100.00
40650;BME280;26342;42.826;23.992;2022-12-31T03:28:20;96394.63;;;3.59;100.00
40650;BME280;26342;42.826;23.992;2022-12-31T03:30:52;96392.59;;;3.61;100.00
40650;BME280;26342;42.826;23.992;2022-12-31T03:33:18;96399.09;;;3.59;100.00
40650;BME280;26342;42.826;23.992;2022-12-31T03:35:45;96393.63;;;3.60;100.00
40650;BME280;26342;42.826;23.992;2022-12-31T03:38:10;96395.06;;;3.63;100.00
40650;BME280;26342;42.826;23.992;2022-12-31T03:40:42;96391.44;;;3.64;100.00
40650;BME280;26342;42.826;23.992;2022-12-31T03:43:08;96388.78;;;3.64;100.00
40650;BME280;26342;42.826;23.992;2022-12-31T03:45:34;96389.78;;;3.63;100.00
40650;BME280;26342;42.826;23.992;2022-12-31T03:48:00;96387.31;;;3.61;100.00
40650;BME280;26342;42.826;23.992;2022-12-31T03:50:26;96398.06;;;3.60;100.00
40650;BME280;26342;42.826;23.992;2022-12-31T03:52:52;96401.91;;;3.57;100.00
40650;BME280;26342;42.826;23.992;2022-12-31T03:55:17;96401.47;;;3.54;100.00
40650;BME280;26342;42.826;23.992;2022-12-31T03:57:42;96403.47;;;3.52;100.00
40650;BME280;26342;42.826;23.992;2022-12-31T04:00:12;96404.69;;;3.49;100.00
40650;BME280;26342;42.826;23.992;2022-12-31T04:02:38;96411.94;;;3.47;100.00
40650;BME280;26342;42.826;23.992;2022-12-31T04:05:04;96410.22;;;3.40;100.00
40650;BME280;26342;42.826;23.992;2022-12-31T04:07:30;96403.16;;;3.40;100.00
40650;BME280;26342;42.826;23.992;2022-12-31T04:09:56;96407.03;;;3.44;100.00
40650;BME280;26342;42.826;23.992;2022-12-31T04:12:21;96404.59;;;3.43;100.00
40650;BME280;26342;42.826;23.992;2022-12-31T04:14:46;96402.78;;;3.43;100.00
40650;BME280;26342;42.826;23.992;2022-12-31T04:17:12;96404.22;;;3.46;100.00
40650;BME280;26342;42.826;23.992;2022-12-31T04:19:37;96401.47;;;3.32;100.00
40650;BME280;26342;42.826;23.992;2022-12-31T04:22:03;96403.81;;;3.27;100.00
40650;BME280;26342;42.826;23.992;2022-12-31T04:24:28;96405.38;;;3.22;100.00
40650;BME280;26342;42.826;23.992;2022-12-31T04:26:54;96413.84;;;3.17;100.00
40650;BME280;26342;42.826;23.992;2022-12-31T04:29:19;96415.78;;;3.08;100.00
40650;BME280;26342;42.826;23.992;2022-12-31T04:31:45;96425.31;;;3.10;100.00
40650;BME280;26342;42.826;23.992;2022-12-31T04:34:10;96435.06;;;3.09;100.00
40650;BME280;26342;42.826;23.992;2022-12-31T04:36:36;96422.22;;;3.06;100.00
40650;BME280;26342;42.826;23.992;2022-12-31T04:39:01;96430.63;;;2.95;100.00
40650;BME280;26342;42.826;23.992;2022-12-31T04:41:26;96426.78;;;2.83;100.00
40650;BME280;26342;42.826;23.992;2022-12-31T04:43:54;96439.34;;;2.80;100.00
40650;BME280;26342;42.826;23.992;2022-12-31T04:46:23;96442.16;;;2.79;100.00
40650;BME280;26342;42.826;23.992;2022-12-31T04:48:49;96437.91;;;2.78;100.00
40650;BME280;26342;42.826;23.992;2022-12-31T04:51:15;96440.25;;;2.73;100.00
40650;BME280;26342;42.826;23.992;2022-12-31T04:53:41;96436.34;;;2.69;100.00
40650;BME280;26342;42.826;23.992;2022-12-31T04:56:07;96447.72;;;2.69;100.00
40650;BME280;26342;42.826;23.992;2022-12-31T04:58:33;96452.31;;;2.67;100.00
40650;BME280;26342;42.826;23.992;2022-12-31T05:00:58;96450.16;;;2.71;100.00
40650;BME280;26342;42.826;23.992;2022-12-31T05:03:25;96453.31;;;2.66;100.00
40650;BME280;26342;42.826;23.992;2022-12-31T05:05:51;96465.34;;;2.69;100.00
40650;BME280;26342;42.826;23.992;2022-12-31T05:08:17;96466.59;;;2.58;100.00
40650;BME280;26342;42.826;23.992;2022-12-31T05:10:45;96467.28;;;2.52;100.00
40650;BME280;26342;42.826;23.992;2022-12-31T05:13:10;96467.47;;;2.50;100.00
40650;BME280;26342;42.826;23.992;2022-12-31T05:15:36;96473.31;;;2.46;100.00
40650;BME280;26342;42.826;23.992;2022-12-31T05:18:02;96475.28;;;2.44;100.00
40650;BME280;26342;42.826;23.992;2022-12-31T05:20:28;96472.00;;;2.42;100.00
40650;BME280;26342;42.826;23.992;2022-12-31T05:22:54;96474.66;;;2.42;100.00
40650;BME280;26342;42.826;23.992;2022-12-31T05:25:19;96477.66;;;2.39;100.00
40650;BME280;26342;42.826;23.992;2022-12-31T05:27:44;96479.91;;;2.42;100.00
40650;BME280;26342;42.826;23.992;2022-12-31T05:30:10;96483.66;;;2.47;100.00
40650;BME280;26342;42.826;23.992;2022-12-31T05:32:36;96472.91;;;2.34;100.00
40650;BME280;26342;42.826;23.992;2022-12-31T05:35:02;96491.63;;;2.39;100.00
40650;BME280;26342;42.826;23.992;2022-12-31T05:37:28;96482.81;;;2.32;100.00
40650;BME280;26342;42.826;23.992;2022-12-31T05:39:54;96499.06;;;2.36;100.00
40650;BME280;26342;42.826;23.992;2022-12-31T05:42:20;96490.72;;;2.32;100.00
40650;BME280;26342;42.826;23.992;2022-12-31T05:44:46;96494.53;;;2.30;100.00
40650;BME280;26342;42.826;23.992;2022-12-31T05:47:11;96497.78;;;2.32;100.00
40650;BME280;26342;42.826;23.992;2022-12-31T05:49:37;96495.84;;;2.26;100.00
40650;BME280;26342;42.826;23.992;2022-12-31T05:52:02;96508.03;;;2.27;100.00
40650;BME280;26342;42.826;23.992;2022-12-31T05:54:28;96505.75;;;2.23;100.00
40650;BME280;26342;42.826;23.992;2022-12-31T05:56:53;96513.28;;;2.27;100.00
40650;BME280;26342;42.826;23.992;2022-12-31T05:59:19;96508.03;;;2.27;100.00
40650;BME280;26342;42.826;23.992;2022-12-31T06:01:44;96517.94;;;2.24;100.00
40650;BME280;26342;42.826;23.992;2022-12-31T06:04:10;96513.34;;;2.18;100.00
40650;BME280;26342;42.826;23.992;2022-12-31T06:06:35;96514.81;;;2.21;100.00
40650;BME280;26342;42.826;23.992;2022-12-31T06:09:01;96523.25;;;2.16;100.00
40650;BME280;26342;42.826;23.992;2022-12-31T06:11:26;96527.06;;;2.14;100.00
40650;BME280;26342;42.826;23.992;2022-12-31T06:13:51;96526.06;;;2.15;100.00
40650;BME280;26342;42.826;23.992;2022-12-31T06:16:17;96527.59;;;2.09;100.00
40650;BME280;26342;42.826;23.992;2022-12-31T06:18:42;96529.59;;;2.07;100.00
40650;BME280;26342;42.826;23.992;2022-12-31T06:21:08;96533.22;;;2.06;100.00
40650;BME280;26342;42.826;23.992;2022-12-31T06:23:33;96534.84;;;2.07;100.00
40650;BME280;26342;42.826;23.992;2022-12-31T06:26:03;96538.13;;;2.09;100.00
40650;BME280;26342;42.826;23.992;2022-12-31T06:28:28;96537.06;;;2.18;100.00
40650;BME280;26342;42.826;23.992;2022-12-31T06:31:03;96546.13;;;2.16;100.00
40650;BME280;26342;42.826;23.992;2022-12-31T06:33:29;96539.56;;;2.12;100.00
40650;BME280;26342;42.826;23.992;2022-12-31T06:35:55;96541.75;;;2.08;100.00
40650;BME280;26342;42.826;23.992;2022-12-31T06:38:22;96543.78;;;1.98;100.00
40650;BME280;26342;42.826;23.992;2022-12-31T06:40:47;96543.63;;;2.00;100.00
40650;BME280;26342;42.826;23.992;2022-12-31T06:43:13;96539.69;;;1.95;100.00
40650;BME280;26342;42.826;23.992;2022-12-31T06:45:38;96544.44;;;2.00;100.00
40650;BME280;26342;42.826;23.992;2022-12-31T06:48:05;96546.88;;;2.02;100.00
40650;BME280;26342;42.826;23.992;2022-12-31T06:50:30;96542.78;;;1.99;100.00
40650;BME280;26342;42.826;23.992;2022-12-31T06:52:56;96559.22;;;2.01;100.00
40650;BME280;26342;42.826;23.992;2022-12-31T06:55:22;96557.41;;;2.02;100.00
40650;BME280;26342;42.826;23.992;2022-12-31T06:57:47;96560.22;;;2.00;100.00
40650;BME280;26342;42.826;23.992;2022-12-31T07:00:13;96560.69;;;2.04;100.00
40650;BME280;26342;42.826;23.992;2022-12-31T07:03:01;96567.44;;;2.06;100.00
40650;BME280;26342;42.826;23.992;2022-12-31T07:05:45;96562.81;;;2.08;100.00
40650;BME280;26342;42.826;23.992;2022-12-31T07:11:18;96571.97;;;2.12;100.00
40650;BME280;26342;42.826;23.992;2022-12-31T07:19:26;96582.00;;;2.17;100.00
40650;BME280;26342;42.826;23.992;2022-12-31T07:21:57;96583.00;;;2.16;100.00
40650;BME280;26342;42.826;23.992;2022-12-31T07:24:23;96580.19;;;2.17;100.00
40650;BME280;26342;42.826;23.992;2022-12-31T07:32:49;96593.72;;;2.14;100.00
40650;BME280;26342;42.826;23.992;2022-12-31T07:47:04;96608.78;;;2.20;100.00
40650;BME280;26342;42.826;23.992;2022-12-31T07:49:31;96601.38;;;2.24;100.00
40650;BME280;26342;42.826;23.992;2022-12-31T07:51:57;96602.03;;;2.26;100.00
40650;BME280;26342;42.826;23.992;2022-12-31T07:54:22;96602.97;;;2.33;100.00
40650;BME280;26342;42.826;23.992;2022-12-31T07:56:50;96605.78;;;2.32;100.00
40650;BME280;26342;42.826;23.992;2022-12-31T08:10:26;96603.53;;;2.43;100.00
40650;BME280;26342;42.826;23.992;2022-12-31T08:13:02;96603.34;;;2.53;100.00
40650;BME280;26342;42.826;23.992;2022-12-31T08:15:28;96601.34;;;2.55;100.00
40650;BME280;26342;42.826;23.992;2022-12-31T08:17:54;96610.00;;;2.64;100.00
40650;BME280;26342;42.826;23.992;2022-12-31T08:20:20;96608.41;;;2.77;100.00
40650;BME280;26342;42.826;23.992;2022-12-31T08:23:18;96613.28;;;3.03;100.00
40650;BME280;26342;42.826;23.992;2022-12-31T08:25:58;96613.03;;;3.28;100.00
40650;BME280;26342;42.826;23.992;2022-12-31T08:28:52;96606.31;;;3.55;100.00
40650;BME280;26342;42.826;23.992;2022-12-31T08:31:26;96595.56;;;3.71;100.00
40650;BME280;26342;42.826;23.992;2022-12-31T08:37:00;96595.19;;;4.25;100.00
40650;BME280;26342;42.826;23.992;2022-12-31T08:39:49;96600.38;;;4.55;100.00
40650;BME280;26342;42.826;23.992;2022-12-31T08:42:33;96590.53;;;4.91;100.00
40650;BME280;26342;42.826;23.992;2022-12-31T08:45:21;96594.78;;;5.20;100.00
40650;BME280;26342;42.826;23.992;2022-12-31T08:50:42;96590.72;;;5.87;100.00
40650;BME280;26342;42.826;23.992;2022-12-31T08:53:08;96582.13;;;6.26;100.00
40650;BME280;26342;42.826;23.992;2022-12-31T08:55:34;96587.06;;;6.62;100.00
40650;BME280;26342;42.826;23.992;2022-12-31T09:00:33;96571.16;;;7.35;100.00
40650;BME280;26342;42.826;23.992;2022-12-31T09:19:02;96564.63;;;10.20;100.00
40650;BME280;26342;42.826;23.992;2022-12-31T09:21:28;96561.13;;;10.68;100.00
40650;BME280;26342;42.826;23.992;2022-12-31T09:23:53;96559.78;;;11.12;100.00
40650;BME280;26342;42.826;23.992;2022-12-31T09:31:39;96542.47;;;12.54;100.00
40650;BME280;26342;42.826;23.992;2022-12-31T09:34:35;96538.00;;;12.88;98.60
40650;BME280;26342;42.826;23.992;2022-12-31T09:37:07;96530.00;;;13.10;94.99
40650;BME280;26342;42.826;23.992;2022-12-31T09:39:45;96538.09;;;13.44;92.02
40650;BME280;26342;42.826;23.992;2022-12-31T09:42:43;96530.94;;;13.71;89.60
40650;BME280;26342;42.826;23.992;2022-12-31T09:51:13;96509.78;;;14.67;83.85
40650;BME280;26342;42.826;23.992;2022-12-31T09:56:34;96512.53;;;15.42;81.54
40650;BME280;26342;42.826;23.992;2022-12-31T10:01:52;96507.66;;;15.86;78.70
40650;BME280;26342;42.826;23.992;2022-12-31T10:04:46;96501.34;;;16.23;73.99
40650;BME280;26342;42.826;23.992;2022-12-31T10:09:53;96490.19;;;16.77;69.23
40650;BME280;26342;42.826;23.992;2022-12-31T10:12:51;96486.69;;;17.07;66.41
40650;BME280;26342;42.826;23.992;2022-12-31T10:20:50;96480.38;;;17.72;60.45
40650;BME280;26342;42.826;23.992;2022-12-31T10:29:07;96477.06;;;18.45;56.60
40650;BME280;26342;42.826;23.992;2022-12-31T10:31:38;96470.47;;;18.66;54.31
40650;BME280;26342;42.826;23.992;2022-12-31T11:24:33;96428.09;;;18.91;45.28
40650;BME280;26342;42.826;23.992;2022-12-31T11:29:38;96434.63;;;18.46;44.70
40650;BME280;26342;42.826;23.992;2022-12-31T11:32:25;96433.38;;;18.33;46.01
40650;BME280;26342;42.826;23.992;2022-12-31T11:35:24;96421.16;;;18.01;47.05
40650;BME280;26342;42.826;23.992;2022-12-31T11:40:55;96428.53;;;17.75;46.83
40650;BME280;26342;42.826;23.992;2022-12-31T11:43:40;96430.78;;;17.48;49.62
40650;BME280;26342;42.826;23.992;2022-12-31T11:55:22;96434.34;;;16.36;52.13
40650;BME280;26342;42.826;23.992;2022-12-31T11:57:51;96421.94;;;16.30;51.59
40650;BME280;26342;42.826;23.992;2022-12-31T12:00:19;96432.69;;;16.25;52.95
40650;BME280;26342;42.826;23.992;2022-12-31T12:02:50;96437.53;;;16.23;52.41
40650;BME280;26342;42.826;23.992;2022-12-31T12:05:19;96439.41;;;16.17;52.01
40650;BME280;26342;42.826;23.992;2022-12-31T12:07:49;96436.16;;;16.05;51.78
40650;BME280;26342;42.826;23.992;2022-12-31T12:12:52;96436.38;;;15.94;55.81
40650;BME280;26342;42.826;23.992;2022-12-31T12:15:31;96438.00;;;15.89;56.42
40650;BME280;26342;42.826;23.992;2022-12-31T12:18:25;96430.94;;;15.73;54.92
40650;BME280;26342;42.826;23.992;2022-12-31T12:20:52;96426.78;;;15.55;54.82
40650;BME280;26342;42.826;23.992;2022-12-31T12:23:25;96432.59;;;15.37;58.14
40650;BME280;26342;42.826;23.992;2022-12-31T12:25:51;96439.06;;;15.36;57.03
40650;BME280;26342;42.826;23.992;2022-12-31T12:28:18;96434.34;;;15.11;57.73
40650;BME280;26342;42.826;23.992;2022-12-31T12:30:58;96431.13;;;15.09;58.27
40650;BME280;26342;42.826;23.992;2022-12-31T12:33:25;96442.91;;;15.03;57.76
40650;BME280;26342;42.826;23.992;2022-12-31T12:35:51;96446.09;;;15.00;58.64
40650;BME280;26342;42.826;23.992;2022-12-31T12:38:21;96440.91;;;14.88;57.63
40650;BME280;26342;42.826;23.992;2022-12-31T12:41:02;96449.72;;;14.78;59.62
40650;BME280;26342;42.826;23.992;2022-12-31T12:43:32;96450.78;;;14.77;57.81
40650;BME280;26342;42.826;23.992;2022-12-31T12:46:00;96451.53;;;14.73;58.55
40650;BME280;26342;42.826;23.992;2022-12-31T12:48:45;96453.53;;;14.56;59.06
40650;BME280;26342;42.826;23.992;2022-12-31T12:56:44;96462.88;;;14.48;59.70
40650;BME280;26342;42.826;23.992;2022-12-31T13:05:33;96476.88;;;14.28;61.31
40650;BME280;26342;42.826;23.992;2022-12-31T13:22:42;96483.47;;;13.93;63.00
40650;BME280;26342;42.826;23.992;2022-12-31T13:27:31;96492.66;;;13.76;63.47
40650;BME280;26342;42.826;23.992;2022-12-31T13:30:00;96504.63;;;13.68;63.30
40650;BME280;26342;42.826;23.992;2022-12-31T13:32:36;96490.25;;;13.57;63.75
40650;BME280;26342;42.826;23.992;2022-12-31T13:35:18;96486.50;;;13.58;63.27
40650;BME280;26342;42.826;23.992;2022-12-31T13:37:46;96503.47;;;13.64;63.42
40650;BME280;26342;42.826;23.992;2022-12-31T13:40:23;96507.47;;;13.61;62.72
40650;BME280;26342;42.826;23.992;2022-12-31T13:43:07;96506.78;;;13.49;64.29
40650;BME280;26342;42.826;23.992;2022-12-31T13:45:40;96513.13;;;13.43;65.11
40650;BME280;26342;42.826;23.992;2022-12-31T13:48:15;96515.81;;;13.43;64.49
40650;BME280;26342;42.826;23.992;2022-12-31T13:50:58;96517.09;;;13.40;65.85
40650;BME280;26342;42.826;23.992;2022-12-31T13:53:39;96518.34;;;13.33;65.54
40650;BME280;26342;42.826;23.992;2022-12-31T13:56:13;96518.28;;;13.28;65.41
40650;BME280;26342;42.826;23.992;2022-12-31T14:01:45;96518.66;;;13.03;68.17
40650;BME280;26342;42.826;23.992;2022-12-31T14:04:24;96510.59;;;12.86;70.83
40650;BME280;26342;42.826;23.992;2022-12-31T14:07:14;96516.34;;;12.61;72.64
40650;BME280;26342;42.826;23.992;2022-12-31T14:09:42;96516.53;;;12.26;75.16
40650;BME280;26342;42.826;23.992;2022-12-31T14:15:27;96531.19;;;11.60;81.38
40650;BME280;26342;42.826;23.992;2022-12-31T14:21:04;96537.59;;;11.12;86.16
40650;BME280;26342;42.826;23.992;2022-12-31T14:26:20;96545.09;;;10.68;90.35
40650;BME280;26342;42.826;23.992;2022-12-31T14:29:10;96545.06;;;10.56;91.40
40650;BME280;26342;42.826;23.992;2022-12-31T14:34:26;96538.38;;;10.36;94.09
40650;BME280;26342;42.826;23.992;2022-12-31T14:40:12;96531.31;;;10.11;96.38
40650;BME280;26342;42.826;23.992;2022-12-31T14:50:58;96537.41;;;9.82;98.77
40650;BME280;26342;42.826;23.992;2022-12-31T14:53:26;96531.09;;;9.76;99.21
40650;BME280;26342;42.826;23.992;2022-12-31T14:56:00;96536.50;;;9.69;100.00
40650;BME280;26342;42.826;23.992;2022-12-31T14:58:36;96541.56;;;9.59;100.00
40650;BME280;26342;42.826;23.992;2022-12-31T15:03:35;96548.34;;;9.37;100.00
40650;BME280;26342;42.826;23.992;2022-12-31T15:09:03;96555.31;;;9.13;100.00
40650;BME280;26342;42.826;23.992;2022-12-31T15:22:48;96564.97;;;8.82;100.00
40650;BME280;26342;42.826;23.992;2022-12-31T15:25:31;96577.78;;;8.67;100.00
40650;BME280;26342;42.826;23.992;2022-12-31T15:27:59;96572.72;;;8.59;100.00
40650;BME280;26342;42.826;23.992;2022-12-31T15:30:36;96564.97;;;8.57;100.00
40650;BME280;26342;42.826;23.992;2022-12-31T15:35:52;96572.03;;;8.38;100.00
40650;BME280;26342;42.826;23.992;2022-12-31T15:40:59;96570.28;;;8.12;100.00
40650;BME280;26342;42.826;23.992;2022-12-31T15:43:32;96573.41;;;8.03;100.00
40650;BME280;26342;42.826;23.992;2022-12-31T15:46:00;96584.88;;;7.97;100.00
40650;BME280;26342;42.826;23.992;2022-12-31T15:48:31;96590.22;;;7.90;100.00
40650;BME280;26342;42.826;23.992;2022-12-31T15:51:00;96595.72;;;7.89;100.00
40650;BME280;26342;42.826;23.992;2022-12-31T15:53:33;96593.50;;;7.86;100.00
40650;BME280;26342;42.826;23.992;2022-12-31T15:56:00;96603.53;;;7.90;100.00
40650;BME280;26342;42.826;23.992;2022-12-31T15:58:30;96603.53;;;7.90;100.00
40650;BME280;26342;42.826;23.992;2022-12-31T16:01:01;96607.97;;;7.96;100.00
40650;BME280;26342;42.826;23.992;2022-12-31T16:03:28;96616.38;;;7.93;100.00
40650;BME280;26342;42.826;23.992;2022-12-31T16:06:03;96609.59;;;7.97;100.00
40650;BME280;26342;42.826;23.992;2022-12-31T16:08:33;96604.34;;;7.91;100.00
40650;BME280;26342;42.826;23.992;2022-12-31T16:10:59;96616.81;;;7.83;100.00
40650;BME280;26342;42.826;23.992;2022-12-31T16:13:26;96613.75;;;7.80;100.00
40650;BME280;26342;42.826;23.992;2022-12-31T16:16:03;96623.56;;;7.79;100.00
40650;BME280;26342;42.826;23.992;2022-12-31T16:18:40;96627.88;;;7.74;100.00
40650;BME280;26342;42.826;23.992;2022-12-31T16:21:31;96629.75;;;7.53;100.00
40650;BME280;26342;42.826;23.992;2022-12-31T16:24:03;96630.78;;;7.46;100.00
40650;BME280;26342;42.826;23.992;2022-12-31T16:26:51;96633.66;;;7.31;100.00
40650;BME280;26342;42.826;23.992;2022-12-31T16:29:18;96638.16;;;7.24;100.00
40650;BME280;26342;42.826;23.992;2022-12-31T16:31:46;96640.41;;;7.14;100.00
40650;BME280;26342;42.826;23.992;2022-12-31T16:34:18;96645.91;;;7.12;100.00
40650;BME280;26342;42.826;23.992;2022-12-31T16:37:00;96642.25;;;7.13;100.00
40650;BME280;26342;42.826;23.992;2022-12-31T16:39:30;96641.22;;;7.08;100.00
40650;BME280;26342;42.826;23.992;2022-12-31T16:44:33;96646.91;;;6.91;100.00
40650;BME280;26342;42.826;23.992;2022-12-31T16:47:00;96652.63;;;6.82;100.00
40650;BME280;26342;42.826;23.992;2022-12-31T16:49:29;96643.22;;;6.72;100.00
40650;BME280;26342;42.826;23.992;2022-12-31T16:52:02;96648.72;;;6.64;100.00
40650;BME280;26342;42.826;23.992;2022-12-31T16:54:33;96651.09;;;6.46;100.00
40650;BME280;26342;42.826;23.992;2022-12-31T16:56:59;96646.38;;;6.35;100.00
40650;BME280;26342;42.826;23.992;2022-12-31T16:59:42;96647.41;;;6.34;100.00
40650;BME280;26342;42.826;23.992;2022-12-31T17:02:14;96663.97;;;6.49;100.00
40650;BME280;26342;42.826;23.992;2022-12-31T17:04:46;96672.34;;;6.53;100.00
40650;BME280;26342;42.826;23.992;2022-12-31T17:12:31;96672.13;;;6.54;100.00
40650;BME280;26342;42.826;23.992;2022-12-31T17:15:04;96677.06;;;6.57;100.00
40650;BME280;26342;42.826;23.992;2022-12-31T17:17:31;96675.16;;;6.44;100.00
40650;BME280;26342;42.826;23.992;2022-12-31T17:20:01;96683.09;;;6.38;100.00
40650;BME280;26342;42.826;23.992;2022-12-31T17:22:39;96692.03;;;6.30;100.00
40650;BME280;26342;42.826;23.992;2022-12-31T17:27:54;96703.66;;;6.29;100.00
40650;BME280;26342;42.826;23.992;2022-12-31T17:30:47;96703.69;;;6.36;100.00
40650;BME280;26342;42.826;23.992;2022-12-31T17:35:40;96708.66;;;6.11;100.00
40650;BME280;26342;42.826;23.992;2022-12-31T17:43:17;96711.41;;;5.68;100.00
40650;BME280;26342;42.826;23.992;2022-12-31T17:45:44;96715.88;;;5.61;100.00
40650;BME280;26342;42.826;23.992;2022-12-31T17:48:16;96721.38;;;5.66;100.00
40650;BME280;26342;42.826;23.992;2022-12-31T17:50:53;96721.84;;;5.70;100.00